createdAt,value
2019-05-26T00:01:40.786Z,101376.88
2019-05-26T00:04:32.764Z,101373.89
2019-05-26T00:07:06.680Z,101376.88
2019-05-26T00:09:41.227Z,101375.09
2019-05-26T00:12:35.175Z,101363.25
2019-05-26T00:15:10.722Z,101360.36
2019-05-26T00:17:58.191Z,101347.06
2019-05-26T00:20:46.489Z,101349.31
2019-05-26T00:23:21.060Z,101348.49
2019-05-26T00:37:16.968Z,101337.80
2019-05-26T00:39:50.940Z,101333.78
2019-05-26T00:42:42.359Z,101330.50
2019-05-26T00:45:18.351Z,101335.21
2019-05-26T00:48:10.744Z,101327.55
2019-05-26T00:50:43.271Z,101322.49
2019-05-26T00:53:41.000Z,101316.92
2019-05-26T00:56:15.134Z,101317.02
2019-05-26T00:59:01.588Z,101305.41
2019-05-26T01:01:44.626Z,101308.98
2019-05-26T01:04:19.369Z,101303.85
2019-05-26T01:07:05.643Z,101300.66
2019-05-26T01:09:39.905Z,101301.60
2019-05-26T01:12:14.805Z,101298.40
2019-05-26T01:15:01.014Z,101298.09
2019-05-26T01:17:34.870Z,101293.27
2019-05-26T01:20:09.273Z,101295.14
2019-05-26T01:22:43.533Z,101293.58
2019-05-26T01:25:17.328Z,101292.62
2019-05-26T01:27:51.351Z,101288.21
2019-05-26T01:30:37.772Z,101282.42
2019-05-26T01:33:11.362Z,101284.89
2019-05-26T01:35:46.240Z,101282.53
2019-05-26T01:38:24.250Z,101274.71
2019-05-26T01:41:20.680Z,101275.73
2019-05-26T01:44:06.179Z,101274.72
2019-05-26T01:46:41.600Z,101279.55
2019-05-26T01:49:15.677Z,101276.05
2019-05-26T01:51:53.060Z,101277.17
2019-05-26T01:54:27.181Z,101272.52
2019-05-26T01:57:01.595Z,101262.73
2019-05-26T01:59:36.829Z,101265.34
2019-05-26T02:02:30.465Z,101260.59
2019-05-26T02:05:04.023Z,101263.80
2019-05-26T02:07:39.308Z,101257.20
2019-05-26T02:10:13.239Z,101249.59
2019-05-26T02:12:46.123Z,101246.70
2019-05-26T02:15:20.433Z,101247.13
2019-05-26T02:18:05.876Z,101249.27
2019-05-26T02:20:52.242Z,101240.25
2019-05-26T02:23:26.486Z,101238.36
2019-05-26T02:26:24.846Z,101234.98
2019-05-26T02:28:59.503Z,101232.80
2019-05-26T02:31:33.577Z,101227.02
2019-05-26T02:34:07.393Z,101230.44
2019-05-26T02:36:52.866Z,101227.96
2019-05-26T02:39:27.058Z,101222.07
2019-05-26T02:42:01.376Z,101221.47
2019-05-26T02:44:46.543Z,101218.03
2019-05-26T02:47:32.283Z,101211.95
2019-05-26T02:50:24.312Z,101202.96
2019-05-26T02:53:15.395Z,101203.06
2019-05-26T02:55:49.236Z,101194.60
2019-05-26T02:58:23.439Z,101189.55
2019-05-26T03:00:57.745Z,101182.53
2019-05-26T03:03:31.638Z,101183.04
2019-05-26T03:06:05.505Z,101181.23
2019-05-26T03:08:39.769Z,101171.54
2019-05-26T03:11:28.876Z,101173.00
2019-05-26T03:14:04.209Z,101176.53
2019-05-26T03:16:58.988Z,101170.59
2019-05-26T03:19:34.981Z,101170.15
2019-05-26T03:22:26.237Z,101173.06
2019-05-26T03:25:01.141Z,101172.25
2019-05-26T03:27:52.638Z,101166.80
2019-05-26T03:30:44.437Z,101162.94
2019-05-26T03:33:29.217Z,101163.87
2019-05-26T03:36:20.838Z,101160.52
2019-05-26T03:39:14.739Z,101151.81
2019-05-26T03:41:50.961Z,101155.48
2019-05-26T03:44:29.602Z,101155.66
2019-05-26T03:47:05.398Z,101005.62
2019-05-26T03:49:38.646Z,101146.05
2019-05-26T03:52:30.366Z,101148.73
2019-05-26T03:55:19.789Z,101145.32
2019-05-26T03:58:20.460Z,101138.46
2019-05-26T04:01:12.432Z,101136.39
2019-05-26T04:04:01.540Z,101138.02
2019-05-26T04:06:53.160Z,101133.27
2019-05-26T04:10:02.580Z,101131.84
2019-05-26T04:12:36.378Z,101126.94
2019-05-26T04:15:25.264Z,101129.86
2019-05-26T04:18:14.694Z,101128.37
2019-05-26T04:21:09.192Z,101122.53
2019-05-26T04:23:59.826Z,101122.53
2019-05-26T04:26:49.096Z,101121.67
2019-05-26T04:29:38.956Z,101124.06
2019-05-26T04:32:29.287Z,101130.94
2019-05-26T04:35:20.454Z,101129.75
2019-05-26T04:38:10.752Z,101125.13
2019-05-26T04:41:01.850Z,101126.91
2019-05-26T04:43:52.675Z,101124.21
2019-05-26T04:46:43.300Z,101119.52
2019-05-26T04:49:37.299Z,101113.98
2019-05-26T04:52:24.620Z,101116.59
2019-05-26T04:55:16.571Z,101110.91
2019-05-26T04:58:06.399Z,101108.09
2019-05-26T05:00:55.874Z,101103.44
2019-05-26T05:03:46.569Z,101107.31
2019-05-26T05:06:36.724Z,101104.26
2019-05-26T05:09:26.566Z,101099.59
2019-05-26T05:12:16.337Z,101091.02
2019-05-26T05:15:06.117Z,101093.08
2019-05-26T05:17:55.793Z,101087.99
2019-05-26T05:20:45.776Z,101090.22
2019-05-26T05:23:35.685Z,101095.23
2019-05-26T05:26:25.177Z,101094.29
2019-05-26T05:29:15.379Z,101086.18
2019-05-26T05:32:05.408Z,101077.25
2019-05-26T05:34:55.262Z,101070.27
2019-05-26T05:37:44.940Z,101065.81
2019-05-26T05:40:35.583Z,101058.97
2019-05-26T05:43:25.471Z,101056.58
2019-05-26T05:46:15.505Z,101049.06
2019-05-26T05:49:05.221Z,101047.77
2019-05-26T05:51:54.789Z,101053.88
2019-05-26T05:54:46.681Z,101055.92
2019-05-26T05:57:35.851Z,101054.75
2019-05-26T06:00:31.703Z,101054.77
2019-05-26T06:03:07.569Z,101046.34
2019-05-26T06:05:40.810Z,101053.02
2019-05-26T06:08:14.399Z,101047.24
2019-05-26T06:10:47.613Z,101046.66
2019-05-26T06:13:23.224Z,101043.97
2019-05-26T06:15:56.763Z,101045.58
2019-05-26T06:18:29.982Z,101041.99
2019-05-26T06:21:05.043Z,101043.83
2019-05-26T06:23:38.977Z,101048.27
2019-05-26T06:26:11.934Z,101046.77
2019-05-26T06:28:45.104Z,101043.82
2019-05-26T06:31:18.351Z,101043.91
2019-05-26T06:33:53.608Z,101037.25
2019-05-26T06:36:27.317Z,101036.58
2019-05-26T06:39:03.138Z,101037.02
2019-05-26T06:41:45.166Z,101034.23
2019-05-26T06:44:20.586Z,101032.96
2019-05-26T06:46:57.036Z,101024.46
2019-05-26T06:49:30.905Z,101029.81
2019-05-26T06:52:04.582Z,101027.27
2019-05-26T06:54:37.406Z,101034.17
2019-05-26T06:57:10.635Z,101028.03
2019-05-26T06:59:54.666Z,101017.65
2019-05-26T07:02:27.986Z,101016.16
2019-05-26T07:05:01.698Z,101010.37
2019-05-26T07:07:36.152Z,101012.02
2019-05-26T07:10:10.143Z,101021.42
2019-05-26T07:12:41.925Z,101015.16
2019-05-26T07:15:15.986Z,101022.84
2019-05-26T07:17:49.227Z,101018.64
2019-05-26T07:20:33.710Z,101018.05
2019-05-26T07:23:16.825Z,101020.05
2019-05-26T07:25:51.707Z,101013.63
2019-05-26T07:28:26.898Z,101004.77
2019-05-26T07:31:02.873Z,101010.22
2019-05-26T07:33:45.404Z,101007.56
2019-05-26T07:36:19.449Z,101009.81
2019-05-26T07:38:51.521Z,101013.96
2019-05-26T07:41:24.678Z,101008.58
2019-05-26T07:43:59.224Z,101009.41
2019-05-26T07:46:32.402Z,101006.70
2019-05-26T07:49:06.333Z,101003.80
2019-05-26T07:51:39.614Z,100998.12
2019-05-26T07:54:25.544Z,101000.91
2019-05-26T07:57:07.557Z,101002.34
2019-05-26T07:59:41.588Z,100999.14
2019-05-26T08:02:14.908Z,101000.46
2019-05-26T08:04:49.446Z,101000.52
2019-05-26T08:07:24.119Z,100994.91
2019-05-26T08:10:07.719Z,100993.07
2019-05-26T08:12:45.045Z,100990.25
2019-05-26T08:15:18.769Z,100982.92
2019-05-26T08:17:53.511Z,100986.13
2019-05-26T08:20:32.132Z,100979.48
2019-05-26T08:23:07.818Z,100968.44
2019-05-26T08:25:50.512Z,100972.06
2019-05-26T08:28:36.189Z,100967.32
2019-05-26T08:31:13.294Z,100965.75
2019-05-26T08:33:45.338Z,100970.37
2019-05-26T08:36:27.539Z,100953.67
2019-05-26T08:39:01.446Z,100949.89
2019-05-26T08:41:35.829Z,100948.25
2019-05-26T08:44:09.134Z,100945.53
2019-05-26T08:46:51.809Z,100943.31
2019-05-26T08:49:25.660Z,100945.51
2019-05-26T08:52:07.819Z,100941.82
2019-05-26T08:54:41.814Z,100943.20
2019-05-26T08:57:18.153Z,100941.08
2019-05-26T08:59:51.351Z,100942.21
2019-05-26T09:02:24.525Z,100940.88
2019-05-26T09:04:59.621Z,100947.11
2019-05-26T09:07:41.952Z,100930.58
2019-05-26T09:10:24.972Z,100930.34
2019-05-26T09:13:07.705Z,100928.17
2019-05-26T09:15:42.013Z,100929.27
2019-05-26T09:18:18.707Z,100930.35
2019-05-26T09:20:52.826Z,100920.09
2019-05-26T09:23:26.546Z,100920.09
2019-05-26T09:26:01.195Z,100934.48
2019-05-26T09:28:35.361Z,100925.80
2019-05-26T09:31:13.179Z,100917.63
2019-05-26T09:33:47.349Z,100929.33
2019-05-26T09:36:21.121Z,100919.02
2019-05-26T09:38:54.731Z,100929.88
2019-05-26T09:41:30.653Z,100929.88
2019-05-26T09:44:15.697Z,100936.67
2019-05-26T09:46:49.282Z,100943.70
2019-05-26T09:49:23.727Z,100942.05
2019-05-26T09:52:15.773Z,100936.89
2019-05-26T09:54:59.708Z,100944.76
2019-05-26T09:57:33.147Z,100942.83
2019-05-26T10:00:10.163Z,100942.83
2019-05-26T10:02:55.531Z,100924.09
2019-05-26T10:05:30.108Z,100929.25
2019-05-26T10:08:12.898Z,100922.75
2019-05-26T10:10:55.217Z,100928.47
2019-05-26T10:13:32.081Z,100933.91
2019-05-26T10:16:05.174Z,100915.98
2019-05-26T10:18:39.418Z,100932.83
2019-05-26T10:21:14.197Z,100924.41
2019-05-26T10:23:47.737Z,100924.41
2019-05-26T10:26:22.888Z,100917.87
2019-05-26T10:29:00.513Z,100916.99
2019-05-26T10:31:33.574Z,100903.66
2019-05-26T10:34:06.307Z,100904.97
2019-05-26T10:36:40.166Z,100902.47
2019-05-26T10:39:16.148Z,100908.47
2019-05-26T10:41:50.001Z,100904.63
2019-05-26T10:44:23.026Z,100893.72
2019-05-26T10:47:00.904Z,100886.84
2019-05-26T10:49:33.359Z,100888.95
2019-05-26T10:52:06.632Z,100883.52
2019-05-26T10:54:40.284Z,100884.77
2019-05-26T10:57:14.205Z,100878.41
2019-05-26T10:59:48.062Z,100879.22
2019-05-26T11:02:21.701Z,100870.42
2019-05-26T11:04:55.073Z,100874.78
2019-05-26T11:07:28.836Z,100880.95
2019-05-26T11:10:04.097Z,100863.17
2019-05-26T11:12:39.203Z,100860.37
2019-05-26T11:15:22.158Z,100859.91
2019-05-26T11:17:55.672Z,100858.66
2019-05-26T11:20:30.576Z,100849.79
2019-05-26T11:23:04.657Z,100853.42
2019-05-26T11:25:53.234Z,100838.67
2019-05-26T11:28:29.048Z,100840.45
2019-05-26T11:31:11.308Z,100832.71
2019-05-26T11:33:49.789Z,100842.93
2019-05-26T11:36:21.777Z,100833.61
2019-05-26T11:39:08.075Z,100835.34
2019-05-26T11:41:43.290Z,100829.98
2019-05-26T11:44:18.356Z,100820.71
2019-05-26T11:47:04.020Z,100827.47
2019-05-26T11:49:37.644Z,100819.16
2019-05-26T11:52:12.219Z,100812.72
2019-05-26T11:54:54.056Z,100812.94
2019-05-26T11:57:28.532Z,100811.28
2019-05-26T12:00:05.311Z,100814.47
2019-05-26T12:02:42.327Z,100822.58
2019-05-26T12:05:25.638Z,100823.94
2019-05-26T12:11:01.715Z,100805.20
2019-05-26T12:13:36.627Z,100816.48
2019-05-26T12:16:10.668Z,100808.74
2019-05-26T12:18:44.286Z,100801.72
2019-05-26T12:21:33.334Z,100808.95
2019-05-26T12:24:10.178Z,100795.84
2019-05-26T12:26:47.435Z,100801.56
2019-05-26T12:29:36.274Z,100792.28
2019-05-26T12:32:10.741Z,100797.41
2019-05-26T12:34:46.366Z,100795.20
2019-05-26T12:37:20.744Z,100789.39
2019-05-26T12:39:54.298Z,100779.25
2019-05-26T12:42:31.088Z,100774.89
2019-05-26T12:45:05.648Z,100774.00
2019-05-26T12:47:57.283Z,100764.17
2019-05-26T12:50:46.606Z,100763.14
2019-05-26T12:53:31.754Z,100771.60
2019-05-26T12:56:10.892Z,100766.03
2019-05-26T12:58:43.287Z,100758.59
2019-05-26T13:01:25.819Z,100765.23
2019-05-26T13:03:59.335Z,100756.72
2019-05-26T13:06:34.605Z,100758.47
2019-05-26T13:09:09.934Z,100743.94
2019-05-26T13:11:52.494Z,100739.34
2019-05-26T13:14:29.003Z,100736.92
2019-05-26T13:17:06.775Z,100733.33
2019-05-26T13:19:41.934Z,100734.88
2019-05-26T13:22:30.468Z,100734.92
2019-05-26T13:25:18.837Z,100729.35
2019-05-26T13:27:54.833Z,100733.02
2019-05-26T13:30:39.824Z,100728.41
2019-05-26T13:33:15.985Z,100737.72
2019-05-26T13:35:50.748Z,100732.14
2019-05-26T13:38:37.177Z,100716.70
2019-05-26T13:41:11.020Z,100730.38
2019-05-26T13:43:44.221Z,100719.73
2019-05-26T13:46:26.791Z,100717.45
2019-05-26T13:49:09.572Z,100718.30
2019-05-26T13:51:51.806Z,100712.73
2019-05-26T13:54:25.184Z,100702.38
2019-05-26T13:56:59.697Z,100712.36
2019-05-26T13:59:42.203Z,100712.77
2019-05-26T14:02:24.484Z,100717.00
2019-05-26T14:04:57.705Z,100711.17
2019-05-26T14:07:31.113Z,100712.47
2019-05-26T14:10:05.428Z,100711.05
2019-05-26T14:12:44.144Z,100710.45
2019-05-26T14:15:38.046Z,100711.55
2019-05-26T14:18:18.372Z,100709.38
2019-05-26T14:20:51.642Z,100711.91
2019-05-26T14:23:35.770Z,100709.27
2019-05-26T14:26:22.210Z,100699.98
2019-05-26T14:29:07.080Z,100707.47
2019-05-26T14:31:41.151Z,100705.97
2019-05-26T14:34:16.275Z,100702.75
2019-05-26T14:37:00.999Z,100712.63
2019-05-26T14:39:35.519Z,100717.15
2019-05-26T14:42:10.745Z,100720.53
2019-05-26T14:44:45.365Z,100723.30
2019-05-26T14:47:36.099Z,100718.59
2019-05-26T14:50:12.097Z,100710.06
2019-05-26T14:52:45.890Z,100705.88
2019-05-26T14:55:31.414Z,100698.77
2019-05-26T14:58:16.276Z,100690.21
2019-05-26T15:00:53.100Z,100684.76
2019-05-26T15:03:28.339Z,100674.03
2019-05-26T15:06:06.231Z,100672.45
2019-05-26T15:08:39.925Z,100674.47
2019-05-26T15:11:18.084Z,100670.73
2019-05-26T15:13:51.613Z,100659.05
2019-05-26T15:16:27.317Z,100661.94
2019-05-26T15:19:03.746Z,100663.97
2019-05-26T15:21:39.427Z,100662.57
2019-05-26T15:24:12.649Z,100663.87
2019-05-26T15:26:49.875Z,100658.45
2019-05-26T15:29:23.477Z,100653.77
2019-05-26T15:32:03.120Z,100652.80
2019-05-26T15:34:37.260Z,100642.28
2019-05-26T15:37:12.923Z,100647.13
2019-05-26T15:40:04.560Z,100641.28
2019-05-26T15:42:47.000Z,100640.17
2019-05-26T15:45:20.733Z,100640.03
2019-05-26T15:48:00.023Z,100637.41
2019-05-26T15:50:33.524Z,100625.98
2019-05-26T15:53:10.982Z,100622.73
2019-05-26T15:55:50.581Z,100618.48
2019-05-26T15:58:24.104Z,100622.30
2019-05-26T16:00:57.975Z,100609.43
2019-05-26T16:03:34.369Z,100606.65
2019-05-26T16:06:08.043Z,100612.11
2019-05-26T16:08:45.303Z,100614.28
2019-05-26T16:11:21.911Z,100610.85
2019-05-26T16:13:59.519Z,100608.78
2019-05-26T16:16:41.238Z,100607.27
2019-05-26T16:19:18.228Z,100610.71
2019-05-26T16:21:54.378Z,100607.72
2019-05-26T16:24:28.388Z,100604.56
2019-05-26T16:27:19.227Z,100603.98
2019-05-26T16:29:48.542Z,100598.40
2019-05-26T16:32:31.086Z,100594.77
2019-05-26T16:35:04.092Z,100601.18
2019-05-26T16:37:46.244Z,100597.83
2019-05-26T16:40:19.808Z,100593.83
2019-05-26T16:42:54.726Z,100590.04
2019-05-26T16:45:28.324Z,100584.32
2019-05-26T16:48:03.123Z,100589.29
2019-05-26T16:50:38.266Z,100591.02
2019-05-26T16:53:12.214Z,100583.45
2019-05-26T16:55:45.637Z,100592.87
2019-05-26T16:58:19.656Z,100581.38
2019-05-26T17:00:53.938Z,100580.32
2019-05-26T17:03:37.843Z,100579.70
2019-05-26T17:06:12.221Z,100584.50
2019-05-26T17:08:45.998Z,100580.96
2019-05-26T17:11:19.645Z,100574.75
2019-05-26T17:13:52.599Z,100586.02
2019-05-26T17:16:34.757Z,100591.48
2019-05-26T17:19:08.710Z,100605.45
2019-05-26T17:21:45.221Z,100611.83
2019-05-26T17:24:19.010Z,100625.30
2019-05-26T17:27:15.239Z,100632.31
2019-05-26T17:29:48.989Z,100627.50
2019-05-26T17:32:25.305Z,100634.16
2019-05-26T17:35:00.408Z,100622.38
2019-05-26T17:37:33.703Z,100630.84
2019-05-26T17:40:17.433Z,100633.67
2019-05-26T17:42:51.017Z,100637.83
2019-05-26T17:45:27.153Z,100637.35
2019-05-26T17:48:05.251Z,100639.69
2019-05-26T17:50:42.290Z,100643.58
2019-05-26T17:53:27.665Z,100632.73
2019-05-26T17:56:01.293Z,100633.39
2019-05-26T17:58:34.125Z,100631.25
2019-05-26T18:01:07.832Z,100631.55
2019-05-26T18:03:42.199Z,100632.66
2019-05-26T18:06:15.678Z,100631.83
2019-05-26T18:08:49.230Z,100642.22
2019-05-26T18:11:22.748Z,100634.66
2019-05-26T18:13:56.625Z,100640.91
2019-05-26T18:16:36.021Z,100640.64
2019-05-26T18:19:29.473Z,100630.63
2019-05-26T18:22:00.637Z,100639.37
2019-05-26T18:24:34.026Z,100645.09
2019-05-26T18:27:13.824Z,100642.13
2019-05-26T18:29:48.470Z,100639.70
2019-05-26T18:32:23.161Z,100642.98
2019-05-26T18:35:05.937Z,100631.33
2019-05-26T18:37:53.093Z,100638.14
2019-05-26T18:40:35.262Z,100635.45
2019-05-26T18:43:08.965Z,100626.80
2019-05-26T18:45:42.520Z,100636.30
2019-05-26T18:48:16.920Z,100636.31
2019-05-26T18:50:50.789Z,100636.61
2019-05-26T18:53:38.704Z,100632.25
2019-05-26T18:56:12.380Z,100626.02
2019-05-26T18:58:46.125Z,100631.19
2019-05-26T19:01:19.882Z,100633.63
2019-05-26T19:03:53.312Z,100637.69
2019-05-26T19:06:30.976Z,100635.26
2019-05-26T19:09:13.879Z,100615.69
2019-05-26T19:11:56.655Z,100599.70
2019-05-26T19:14:39.487Z,100575.55
2019-05-26T19:17:23.970Z,100576.64
2019-05-26T19:19:57.194Z,100573.92
2019-05-26T19:22:31.552Z,100569.84
2019-05-26T19:25:20.996Z,100560.33
2019-05-26T19:27:58.882Z,100559.27
2019-05-26T19:30:33.889Z,100553.31
2019-05-26T19:33:07.602Z,100554.92
2019-05-26T19:35:50.819Z,100548.39
2019-05-26T19:38:43.025Z,100545.16
2019-05-26T19:41:16.524Z,100550.33
2019-05-26T19:43:50.474Z,100547.05
2019-05-26T19:46:25.938Z,100540.27
2019-05-26T19:49:12.016Z,100538.89
2019-05-26T19:51:53.914Z,100532.96
2019-05-26T19:54:36.721Z,100534.25
2019-05-26T19:57:14.189Z,100535.66
2019-05-26T19:59:51.515Z,100535.66
2019-05-26T20:02:30.520Z,100535.67
2019-05-26T20:05:18.117Z,100523.20
2019-05-26T20:07:52.151Z,100523.20
2019-05-26T20:10:37.025Z,100517.23
2019-05-26T20:13:12.146Z,100517.23
2019-05-26T20:15:47.099Z,100527.56
2019-05-26T20:18:20.650Z,100528.65
2019-05-26T20:20:55.419Z,100524.59
2019-05-26T20:23:30.324Z,100524.59
2019-05-26T20:26:05.088Z,100529.19
2019-05-26T20:28:38.756Z,100529.19
2019-05-26T20:31:22.617Z,100521.58
2019-05-26T20:33:56.552Z,100528.92
2019-05-26T20:36:30.202Z,100527.56
2019-05-26T20:39:03.713Z,100525.92
2019-05-26T20:41:38.148Z,100522.38
2019-05-26T20:44:12.155Z,100518.58
2019-05-26T20:46:49.703Z,100512.63
2019-05-26T20:49:45.051Z,100517.19
2019-05-26T20:52:19.382Z,100516.09
2019-05-26T20:54:52.451Z,100512.04
2019-05-26T20:57:28.147Z,100518.05
2019-05-26T21:00:01.598Z,100510.16
2019-05-26T21:02:35.423Z,100510.72
2019-05-26T21:05:08.879Z,100513.98
2019-05-26T21:07:42.553Z,100503.14
2019-05-26T21:10:16.587Z,100515.59
2019-05-26T21:13:01.960Z,100505.83
2019-05-26T21:15:35.326Z,100513.73
2019-05-26T21:18:08.957Z,100505.88
2019-05-26T21:20:42.662Z,100507.77
2019-05-26T21:23:16.204Z,100502.91
2019-05-26T21:25:49.842Z,100496.39
2019-05-26T21:28:24.141Z,100495.33
2019-05-26T21:31:07.151Z,100498.03
2019-05-26T21:33:42.603Z,100501.56
2019-05-26T21:36:16.012Z,100504.81
2019-05-26T21:38:50.133Z,100504.81
2019-05-26T21:41:25.696Z,100504.83
2019-05-26T21:44:08.060Z,100499.41
2019-05-26T21:46:41.685Z,100499.41
2019-05-26T21:49:17.247Z,100505.36
2019-05-26T21:51:51.523Z,100511.86
2019-05-26T21:54:25.009Z,100508.36
2019-05-26T21:57:07.300Z,100505.34
2019-05-26T21:59:49.928Z,100499.38
2019-05-26T22:02:23.180Z,100500.48
2019-05-26T22:04:55.810Z,100496.14
2019-05-26T22:07:38.990Z,100495.34
2019-05-26T22:10:21.124Z,100493.42
2019-05-26T22:12:54.319Z,100499.14
2019-05-26T22:15:28.033Z,100502.66
2019-05-26T22:18:02.101Z,100494.81
2019-05-26T22:20:36.219Z,100493.73
2019-05-26T22:23:18.763Z,100502.92
2019-05-26T22:26:01.096Z,100496.14
2019-05-26T22:28:36.917Z,100499.95
2019-05-26T22:31:25.328Z,100497.78
2019-05-26T22:34:20.540Z,100492.38
2019-05-26T22:36:53.786Z,100494.82
2019-05-26T22:39:27.040Z,100491.58
2019-05-26T22:42:00.640Z,100499.42
2019-05-26T22:44:38.321Z,100496.16
2019-05-26T22:47:22.794Z,100502.13
2019-05-26T22:50:08.713Z,100502.66
2019-05-26T22:52:46.194Z,100499.16
2019-05-26T22:55:29.326Z,100500.23
2019-05-26T22:58:19.655Z,100499.72
2019-05-26T23:01:02.661Z,100499.15
2019-05-26T23:03:51.038Z,100498.61
2019-05-26T23:06:24.608Z,100498.89
2019-05-26T23:08:58.625Z,100499.73
2019-05-26T23:11:49.057Z,100492.38
2019-05-26T23:14:22.978Z,100498.89
2019-05-26T23:16:55.983Z,100494.84
2019-05-26T23:19:30.068Z,100490.26
2019-05-26T23:22:12.976Z,100487.82
2019-05-26T23:24:55.519Z,100485.91
2019-05-26T23:27:28.762Z,100479.98
2019-05-26T23:30:02.013Z,100477.80
2019-05-26T23:32:35.732Z,100485.92
2019-05-26T23:35:09.320Z,100481.86
2019-05-26T23:37:42.790Z,100472.66
2019-05-26T23:40:16.521Z,100480.51
2019-05-26T23:42:50.119Z,100484.05
2019-05-26T23:45:23.619Z,100480.78
2019-05-26T23:47:57.506Z,100479.70
2019-05-26T23:50:31.055Z,100475.09
2019-05-26T23:53:07.425Z,100476.99
2019-05-26T23:55:41.095Z,100470.22
2019-05-26T23:58:14.715Z,100471.30
